Terminal Aerodrome Forecast
Issued by NWS

Current Version | Previous Version | Text Only | Print | Product List | Glossary Off
Versions: 1 2 3 4 5 6 7 8 9 10 11 12 13 14 15 16 17 18 19 20 21 22 23

000
FTUS41 KILN 230141 AAA
TAFLCK
TAF AMD
KLCK 230141Z 2302/2324 10007KT P6SM OVC009
     FM230500 10007KT 5SM BR VCSH OVC008
     FM231200 14008KT 2SM SHRA BR OVC008
     FM231800 21011KT P6SM VCSH OVC008
     FM232200 27008KT P6SM OVC015=

USA.gov is the U.S. government's official web portal to all federal, state and local government web resources and services.